Архив погоды в Молчаново

Метеограмма Молчаново
Понедельник, 25 Июня
Время местн. Темп Ветер Видим Явления Облачность нижн/средн/верх Атм. давл. Влжн Точка росы ВНГО R Сост. почвы Tg s
Напр Скр Прв ур.ст ур.м изм
06:00 +18.5° Ю-В 1 - 20 км - переменная облачность 747 757 +0.6 78% +14.6° более 2.5 км 0 Сухая (без трещин) +15° -
03:00 +15.2° Ю 1 - 20 км - переменная облачность 746 756 +0.3 88% +13.2° более 2.5 км - - - -
00:00 +16.9° штиль 0 - 20 км - переменная облачность 746 756 +0.2 86% +14.5° более 2.5 км - - - -
Воскресенье, 24 Июня
Время местн. Темп Ветер Видим Явления Облачность нижн/средн/верх Атм. давл. Влжн Точка росы ВНГО R Сост. почвы Tg s
Напр Скр Прв ур.ст ур.м изм
21:00 +19.6° Ю-В 1 - 20 км - переменная облачность 746 755 +0.5 81% +16.3° 1 км - - - -
18:00 +23.4° В,Ю-В 3 - 20 км - облачно 745 755 +0.5 62% +15.8° 1 км 0 - - -
15:00 +24.2° Ю-В 2 - 20 км - облачно 745 754 -0.1 51% +13.3° 600 м - - - -
12:00 +23.7° Ю-В 2 - 20 км - облачно 745 754 +0.2 55% +14.2° 1 км - - - -
09:00 +19.8° В,Ю-В 2 - 20 км - облачно с прояснениями 744 754 +0.8 76% +15.5° более 2.5 км - - - -
06:00 +15.9° В,Ю-В 2 - 20 км ливневый дождь {гроза} облачно 744 754 +0.5 93% +14.7° 600 м 2 Влажная (без луж) - -
03:00 +15.4° В,Ю-В 1 - 20 км небо без изменений {гроза, ливневые осадки} облачно 743 753 +0.2 91% +14° 600 м - - - -
00:00 +18.4° Ю,Ю-В 1 - 20 км гроза без осадков облачно 743 753 +0.1 60% +10.4° 600 м - - - -
Суббота, 23 Июня
Время местн. Темп Ветер Видим Явления Облачность нижн/средн/верх Атм. давл. Влжн Точка росы ВНГО R Сост. почвы Tg s
Напр Скр Прв ур.ст ур.м изм
21:00 +18.7° В,Ю-В 1 - 20 км - облачно 743 753 -0.2 63% +11.5° 600 м - - - -
18:00 +22.2° Ю,Ю-З 2 - 20 км - облачно 743 753 +0.5 40% +8° 600 м 0 - - -
15:00 +24.1° Ю,Ю-З 4 - 20 км - облачно 743 752 +1.1 33% +6.7° 1 км - - - -
12:00 +24.2° Ю 4 10 20 км - переменная облачность 741 751 +0.9 43% +10.7° более 2.5 км - - - -
09:00 +22° Ю,Ю-З 3 - 20 км - облачно 741 750 +1.5 56% +12.9° 1 км - - - -
06:00 +19.7° Ю 2 - 20 км небо без изменений {гроза, ливневые осадки} облачно 739 749 -0.8 69% +13.8° 600 м 1 Влажная (без луж) - -
03:00 +18.1° В 2 11 20 км слабая или умеренная гроза с осадками облачно 740 750 -2.4 71% +12.8° 600 м - - - -
00:00 +19.4° Ю-З 6 16 4 км слабая или умеренная гроза с осадками облачно 742 752 +1.4 66% +12.8° 600 м - - - -
Пятница, 22 Июня
Время местн. Темп Ветер Видим Явления Облачность нижн/средн/верх Атм. давл. Влжн Точка росы ВНГО R Сост. почвы Tg s
Напр Скр Прв ур.ст ур.м изм
21:00 +21.1° В,Ю-В 1 - 20 км - облачно с прояснениями 741 751 -0.3 66% +14.6° более 2.5 км - - - -
18:00 +25.1° Ю 2 - 20 км - облачно 741 751 -0.5 51% +14.2° 1 км 0 - - -
15:00 +24.9° Ю 3 - 20 км - переменная облачность 742 751 -0.2 51% +14.1° 1 км - - - -
12:00 +20.7° Ю 2 - 20 км ливневый дождь облачно 742 752 0 65% +13.8° 600 м - - - -
09:00 +18.6° Ю-В 2 - 20 км небо без изменений {ливневые осадки} облачно 742 752 +0.3 69% +12.7° 600 м - - - -
06:00 +16.7° Ю,Ю-В 3 - 20 км - облачно 742 751 -0.5 71% +11.5° 1 км 0 Влажная (без луж) - -
03:00 +16.2° Ю 3 - 20 км - облачно 742 752 -1 70% +10.8° - - - - -